sensor_id;sensor_type;location;lat;lon;timestamp;temperature;humidity
78438;SHT31;67736;51.978;5.656;2023-03-03T00:01:43;5.4;67.9
78438;SHT31;67736;51.978;5.656;2023-03-03T00:04:12;5.4;68.0
78438;SHT31;67736;51.978;5.656;2023-03-03T00:06:43;5.4;68.1
78438;SHT31;67736;51.978;5.656;2023-03-03T00:09:13;5.3;68.0
78438;SHT31;67736;51.978;5.656;2023-03-03T00:11:43;5.3;68.1
78438;SHT31;67736;51.978;5.656;2023-03-03T00:14:21;5.3;68.3
78438;SHT31;67736;51.978;5.656;2023-03-03T00:16:51;5.3;68.2
78438;SHT31;67736;51.978;5.656;2023-03-03T00:19:21;5.2;68.2
78438;SHT31;67736;51.978;5.656;2023-03-03T00:21:52;5.2;68.4
78438;SHT31;67736;51.978;5.656;2023-03-03T00:24:34;5.2;68.3
78438;SHT31;67736;51.978;5.656;2023-03-03T00:27:20;5.2;68.4
78438;SHT31;67736;51.978;5.656;2023-03-03T00:29:55;5.2;68.3
78438;SHT31;67736;51.978;5.656;2023-03-03T00:32:29;5.2;68.3
78438;SHT31;67736;51.978;5.656;2023-03-03T00:35:20;5.2;68.2
78438;SHT31;67736;51.978;5.656;2023-03-03T00:37:54;5.2;68.4
78438;SHT31;67736;51.978;5.656;2023-03-03T00:40:26;5.2;68.5
78438;SHT31;67736;51.978;5.656;2023-03-03T00:43:01;5.2;68.4
78438;SHT31;67736;51.978;5.656;2023-03-03T00:45:41;5.2;68.0
78438;SHT31;67736;51.978;5.656;2023-03-03T00:48:23;5.2;67.8
78438;SHT31;67736;51.978;5.656;2023-03-03T00:50:54;5.2;67.5
78438;SHT31;67736;51.978;5.656;2023-03-03T00:53:26;5.2;67.1
78438;SHT31;67736;51.978;5.656;2023-03-03T00:55:57;5.2;67.1
78438;SHT31;67736;51.978;5.656;2023-03-03T00:58:27;5.1;67.4
78438;SHT31;67736;51.978;5.656;2023-03-03T01:00:57;5.1;67.5
78438;SHT31;67736;51.978;5.656;2023-03-03T01:03:27;5.1;67.5
78438;SHT31;67736;51.978;5.656;2023-03-03T01:05:56;5.1;67.7
78438;SHT31;67736;51.978;5.656;2023-03-03T01:08:26;5.0;67.8
78438;SHT31;67736;51.978;5.656;2023-03-03T01:10:59;5.0;68.0
78438;SHT31;67736;51.978;5.656;2023-03-03T01:13:33;5.0;67.9
78438;SHT31;67736;51.978;5.656;2023-03-03T01:16:07;5.0;67.9
78438;SHT31;67736;51.978;5.656;2023-03-03T01:18:37;5.0;68.0
78438;SHT31;67736;51.978;5.656;2023-03-03T01:21:09;5.0;67.7
78438;SHT31;67736;51.978;5.656;2023-03-03T01:23:39;5.0;67.7
78438;SHT31;67736;51.978;5.656;2023-03-03T01:26:09;5.0;67.7
78438;SHT31;67736;51.978;5.656;2023-03-03T01:28:41;5.0;67.9
78438;SHT31;67736;51.978;5.656;2023-03-03T01:31:12;5.0;68.0
78438;SHT31;67736;51.978;5.656;2023-03-03T01:33:42;5.0;68.0
78438;SHT31;67736;51.978;5.656;2023-03-03T01:36:12;5.0;68.0
78438;SHT31;67736;51.978;5.656;2023-03-03T01:38:41;5.0;67.8
78438;SHT31;67736;51.978;5.656;2023-03-03T01:41:11;5.0;67.7
78438;SHT31;67736;51.978;5.656;2023-03-03T01:43:46;5.0;67.6
78438;SHT31;67736;51.978;5.656;2023-03-03T01:46:43;5.0;67.5
78438;SHT31;67736;51.978;5.656;2023-03-03T01:49:17;5.0;67.3
78438;SHT31;67736;51.978;5.656;2023-03-03T01:51:53;5.0;67.2
78438;SHT31;67736;51.978;5.656;2023-03-03T01:54:28;5.0;67.2
78438;SHT31;67736;51.978;5.656;2023-03-03T01:57:03;5.0;67.4
78438;SHT31;67736;51.978;5.656;2023-03-03T01:59:39;5.0;67.5
78438;SHT31;67736;51.978;5.656;2023-03-03T02:02:11;5.0;67.5
78438;SHT31;67736;51.978;5.656;2023-03-03T02:04:41;5.0;67.6
78438;SHT31;67736;51.978;5.656;2023-03-03T02:07:14;5.0;67.4
78438;SHT31;67736;51.978;5.656;2023-03-03T02:09:51;5.0;67.5
78438;SHT31;67736;51.978;5.656;2023-03-03T02:12:31;5.0;67.5
78438;SHT31;67736;51.978;5.656;2023-03-03T02:15:17;5.0;67.4
78438;SHT31;67736;51.978;5.656;2023-03-03T02:17:48;5.0;67.3
78438;SHT31;67736;51.978;5.656;2023-03-03T02:20:30;5.0;67.3
78438;SHT31;67736;51.978;5.656;2023-03-03T02:23:09;5.0;67.2
78438;SHT31;67736;51.978;5.656;2023-03-03T02:25:50;5.0;67.4
78438;SHT31;67736;51.978;5.656;2023-03-03T02:28:26;5.0;67.3
78438;SHT31;67736;51.978;5.656;2023-03-03T02:30:58;5.0;67.3
78438;SHT31;67736;51.978;5.656;2023-03-03T02:33:28;5.1;67.2
78438;SHT31;67736;51.978;5.656;2023-03-03T02:35:58;5.1;67.2
78438;SHT31;67736;51.978;5.656;2023-03-03T02:38:33;5.1;67.1
78438;SHT31;67736;51.978;5.656;2023-03-03T02:41:10;5.1;67.2
78438;SHT31;67736;51.978;5.656;2023-03-03T02:43:47;5.1;67.2
78438;SHT31;67736;51.978;5.656;2023-03-03T02:46:19;5.1;67.2
78438;SHT31;67736;51.978;5.656;2023-03-03T02:48:48;5.1;67.3
78438;SHT31;67736;51.978;5.656;2023-03-03T02:51:18;5.1;67.2
78438;SHT31;67736;51.978;5.656;2023-03-03T02:53:48;5.2;67.1
78438;SHT31;67736;51.978;5.656;2023-03-03T02:56:18;5.2;67.1
78438;SHT31;67736;51.978;5.656;2023-03-03T02:58:47;5.2;66.8
78438;SHT31;67736;51.978;5.656;2023-03-03T03:01:18;5.3;66.7
78438;SHT31;67736;51.978;5.656;2023-03-03T03:03:48;5.3;66.6
78438;SHT31;67736;51.978;5.656;2023-03-03T03:06:20;5.3;66.6
78438;SHT31;67736;51.978;5.656;2023-03-03T03:08:50;5.3;66.6
78438;SHT31;67736;51.978;5.656;2023-03-03T03:11:20;5.3;66.4
78438;SHT31;67736;51.978;5.656;2023-03-03T03:13:49;5.3;66.3
78438;SHT31;67736;51.978;5.656;2023-03-03T03:16:19;5.3;66.4
78438;SHT31;67736;51.978;5.656;2023-03-03T03:18:49;5.3;66.5
78438;SHT31;67736;51.978;5.656;2023-03-03T03:21:19;5.3;66.6
78438;SHT31;67736;51.978;5.656;2023-03-03T03:23:48;5.2;66.6
78438;SHT31;67736;51.978;5.656;2023-03-03T03:26:18;5.2;66.8
78438;SHT31;67736;51.978;5.656;2023-03-03T03:28:49;5.2;66.8
78438;SHT31;67736;51.978;5.656;2023-03-03T03:31:20;5.2;66.8
78438;SHT31;67736;51.978;5.656;2023-03-03T03:33:50;5.2;66.8
78438;SHT31;67736;51.978;5.656;2023-03-03T03:36:20;5.2;66.6
78438;SHT31;67736;51.978;5.656;2023-03-03T03:38:50;5.2;66.7
78438;SHT31;67736;51.978;5.656;2023-03-03T03:41:19;5.2;66.9
78438;SHT31;67736;51.978;5.656;2023-03-03T03:43:49;5.1;66.9
78438;SHT31;67736;51.978;5.656;2023-03-03T03:46:19;5.1;67.1
78438;SHT31;67736;51.978;5.656;2023-03-03T03:48:48;5.1;66.9
78438;SHT31;67736;51.978;5.656;2023-03-03T03:51:18;5.1;66.9
78438;SHT31;67736;51.978;5.656;2023-03-03T03:53:48;5.1;66.9
78438;SHT31;67736;51.978;5.656;2023-03-03T03:56:19;5.1;66.8
78438;SHT31;67736;51.978;5.656;2023-03-03T03:58:49;5.1;66.9
78438;SHT31;67736;51.978;5.656;2023-03-03T04:01:18;5.1;66.9
78438;SHT31;67736;51.978;5.656;2023-03-03T04:03:48;5.1;66.9
78438;SHT31;67736;51.978;5.656;2023-03-03T04:06:18;5.0;66.9
78438;SHT31;67736;51.978;5.656;2023-03-03T04:08:47;5.0;67.1
78438;SHT31;67736;51.978;5.656;2023-03-03T04:11:17;5.0;67.1
78438;SHT31;67736;51.978;5.656;2023-03-03T04:13:47;5.0;67.0
78438;SHT31;67736;51.978;5.656;2023-03-03T04:16:17;5.0;66.9
78438;SHT31;67736;51.978;5.656;2023-03-03T04:18:46;5.0;66.9
78438;SHT31;67736;51.978;5.656;2023-03-03T04:21:16;5.0;66.8
78438;SHT31;67736;51.978;5.656;2023-03-03T04:23:48;5.0;66.6
78438;SHT31;67736;51.978;5.656;2023-03-03T04:26:19;5.0;66.5
78438;SHT31;67736;51.978;5.656;2023-03-03T04:28:49;5.0;66.5
78438;SHT31;67736;51.978;5.656;2023-03-03T04:31:19;5.0;66.6
78438;SHT31;67736;51.978;5.656;2023-03-03T04:33:48;5.0;66.4
78438;SHT31;67736;51.978;5.656;2023-03-03T04:36:18;5.0;66.2
78438;SHT31;67736;51.978;5.656;2023-03-03T04:38:48;5.0;66.4
78438;SHT31;67736;51.978;5.656;2023-03-03T04:41:20;5.1;66.4
78438;SHT31;67736;51.978;5.656;2023-03-03T04:43:49;5.1;66.4
78438;SHT31;67736;51.978;5.656;2023-03-03T04:46:19;5.1;66.5
78438;SHT31;67736;51.978;5.656;2023-03-03T04:48:49;5.1;66.5
78438;SHT31;67736;51.978;5.656;2023-03-03T04:51:18;5.1;66.5
78438;SHT31;67736;51.978;5.656;2023-03-03T04:53:48;5.1;66.4
78438;SHT31;67736;51.978;5.656;2023-03-03T04:56:18;5.1;66.6
78438;SHT31;67736;51.978;5.656;2023-03-03T04:58:47;5.1;66.4
78438;SHT31;67736;51.978;5.656;2023-03-03T05:01:17;5.0;66.4
78438;SHT31;67736;51.978;5.656;2023-03-03T05:03:47;5.0;66.7
78438;SHT31;67736;51.978;5.656;2023-03-03T05:06:16;4.9;66.9
78438;SHT31;67736;51.978;5.656;2023-03-03T05:08:46;4.9;67.1
78438;SHT31;67736;51.978;5.656;2023-03-03T05:11:16;4.9;67.1
78438;SHT31;67736;51.978;5.656;2023-03-03T05:13:45;4.9;67.2
78438;SHT31;67736;51.978;5.656;2023-03-03T05:16:15;4.9;67.2
78438;SHT31;67736;51.978;5.656;2023-03-03T05:18:45;4.9;67.1
78438;SHT31;67736;51.978;5.656;2023-03-03T05:21:15;4.9;67.1
78438;SHT31;67736;51.978;5.656;2023-03-03T05:23:44;4.8;67.2
78438;SHT31;67736;51.978;5.656;2023-03-03T05:26:14;4.8;67.3
78438;SHT31;67736;51.978;5.656;2023-03-03T05:28:43;4.8;67.3
78438;SHT31;67736;51.978;5.656;2023-03-03T05:31:13;4.8;67.2
78438;SHT31;67736;51.978;5.656;2023-03-03T05:33:43;4.8;67.2
78438;SHT31;67736;51.978;5.656;2023-03-03T05:36:13;4.8;67.3
78438;SHT31;67736;51.978;5.656;2023-03-03T05:38:42;4.8;67.3
78438;SHT31;67736;51.978;5.656;2023-03-03T05:41:12;4.8;67.4
78438;SHT31;67736;51.978;5.656;2023-03-03T05:43:42;4.8;67.5
78438;SHT31;67736;51.978;5.656;2023-03-03T05:46:12;4.8;67.5
78438;SHT31;67736;51.978;5.656;2023-03-03T05:48:41;4.8;67.3
78438;SHT31;67736;51.978;5.656;2023-03-03T05:51:11;4.8;67.3
78438;SHT31;67736;51.978;5.656;2023-03-03T05:53:41;4.8;67.4
78438;SHT31;67736;51.978;5.656;2023-03-03T05:56:13;4.8;67.4
78438;SHT31;67736;51.978;5.656;2023-03-03T05:58:42;4.8;67.4
78438;SHT31;67736;51.978;5.656;2023-03-03T06:01:12;4.9;67.3
78438;SHT31;67736;51.978;5.656;2023-03-03T06:03:42;4.9;67.2
78438;SHT31;67736;51.978;5.656;2023-03-03T06:06:11;4.9;67.2
78438;SHT31;67736;51.978;5.656;2023-03-03T06:08:43;4.9;67.1
78438;SHT31;67736;51.978;5.656;2023-03-03T06:11:15;4.9;67.2
78438;SHT31;67736;51.978;5.656;2023-03-03T06:13:45;4.9;67.2
78438;SHT31;67736;51.978;5.656;2023-03-03T06:16:16;4.9;67.2
78438;SHT31;67736;51.978;5.656;2023-03-03T06:18:46;4.9;67.4
78438;SHT31;67736;51.978;5.656;2023-03-03T06:21:15;4.9;67.3
78438;SHT31;67736;51.978;5.656;2023-03-03T06:23:45;4.9;67.3
78438;SHT31;67736;51.978;5.656;2023-03-03T06:26:14;4.9;67.1
78438;SHT31;67736;51.978;5.656;2023-03-03T06:28:44;5.0;67.1
78438;SHT31;67736;51.978;5.656;2023-03-03T06:31:14;5.0;67.1
78438;SHT31;67736;51.978;5.656;2023-03-03T06:33:44;5.0;67.2
78438;SHT31;67736;51.978;5.656;2023-03-03T06:36:14;5.0;67.2
78438;SHT31;67736;51.978;5.656;2023-03-03T06:38:43;5.0;67.2
78438;SHT31;67736;51.978;5.656;2023-03-03T06:41:13;5.0;67.2
78438;SHT31;67736;51.978;5.656;2023-03-03T06:43:43;5.0;67.1
78438;SHT31;67736;51.978;5.656;2023-03-03T06:46:12;5.0;67.2
78438;SHT31;67736;51.978;5.656;2023-03-03T06:48:43;5.0;67.3
78438;SHT31;67736;51.978;5.656;2023-03-03T06:51:22;5.0;67.4
78438;SHT31;67736;51.978;5.656;2023-03-03T06:53:55;5.0;67.4
78438;SHT31;67736;51.978;5.656;2023-03-03T06:56:26;5.1;67.5
78438;SHT31;67736;51.978;5.656;2023-03-03T06:58:59;5.1;67.6
78438;SHT31;67736;51.978;5.656;2023-03-03T07:01:35;5.1;67.7
78438;SHT31;67736;51.978;5.656;2023-03-03T07:04:09;5.1;67.8
78438;SHT31;67736;51.978;5.656;2023-03-03T07:06:42;5.1;67.7
78438;SHT31;67736;51.978;5.656;2023-03-03T07:09:21;5.1;67.8
78438;SHT31;67736;51.978;5.656;2023-03-03T07:11:52;5.1;67.9
78438;SHT31;67736;51.978;5.656;2023-03-03T07:14:22;5.1;67.9
78438;SHT31;67736;51.978;5.656;2023-03-03T07:16:57;5.2;67.9
78438;SHT31;67736;51.978;5.656;2023-03-03T07:19:33;5.2;68.1
78438;SHT31;67736;51.978;5.656;2023-03-03T07:22:15;5.2;68.3
78438;SHT31;67736;51.978;5.656;2023-03-03T07:24:48;5.2;68.5
78438;SHT31;67736;51.978;5.656;2023-03-03T07:27:23;5.2;68.6
78438;SHT31;67736;51.978;5.656;2023-03-03T07:29:54;5.2;68.7
78438;SHT31;67736;51.978;5.656;2023-03-03T07:32:36;5.2;68.7
78438;SHT31;67736;51.978;5.656;2023-03-03T07:35:23;5.3;68.9
78438;SHT31;67736;51.978;5.656;2023-03-03T07:37:55;5.3;68.9
78438;SHT31;67736;51.978;5.656;2023-03-03T07:40:33;5.3;68.8
78438;SHT31;67736;51.978;5.656;2023-03-03T07:43:16;5.3;68.9
78438;SHT31;67736;51.978;5.656;2023-03-03T07:45:52;5.4;68.8
78438;SHT31;67736;51.978;5.656;2023-03-03T07:48:30;5.4;68.9
78438;SHT31;67736;51.978;5.656;2023-03-03T07:51:04;5.4;68.8
78438;SHT31;67736;51.978;5.656;2023-03-03T07:53:34;5.4;69.0
78438;SHT31;67736;51.978;5.656;2023-03-03T07:56:19;5.5;69.1
78438;SHT31;67736;51.978;5.656;2023-03-03T07:58:50;5.5;68.8
78438;SHT31;67736;51.978;5.656;2023-03-03T08:01:39;5.6;68.7
78438;SHT31;67736;51.978;5.656;2023-03-03T08:04:15;5.6;68.8
78438;SHT31;67736;51.978;5.656;2023-03-03T08:06:50;5.6;69.0
78438;SHT31;67736;51.978;5.656;2023-03-03T08:09:29;5.7;68.7
78438;SHT31;67736;51.978;5.656;2023-03-03T08:12:18;5.7;68.7
78438;SHT31;67736;51.978;5.656;2023-03-03T08:14:55;5.8;68.3
78438;SHT31;67736;51.978;5.656;2023-03-03T08:17:34;5.8;67.9
78438;SHT31;67736;51.978;5.656;2023-03-03T08:20:10;5.9;67.7
78438;SHT31;67736;51.978;5.656;2023-03-03T08:22:42;5.9;67.6
78438;SHT31;67736;51.978;5.656;2023-03-03T08:25:12;5.9;67.3
78438;SHT31;67736;51.978;5.656;2023-03-03T08:27:41;5.9;67.2
78438;SHT31;67736;51.978;5.656;2023-03-03T08:30:13;6.0;67.3
78438;SHT31;67736;51.978;5.656;2023-03-03T08:32:42;6.0;66.9
78438;SHT31;67736;51.978;5.656;2023-03-03T08:35:12;6.0;66.3
78438;SHT31;67736;51.978;5.656;2023-03-03T08:37:42;6.1;66.0
78438;SHT31;67736;51.978;5.656;2023-03-03T08:40:12;6.1;66.1
78438;SHT31;67736;51.978;5.656;2023-03-03T08:42:41;6.1;65.7
78438;SHT31;67736;51.978;5.656;2023-03-03T08:45:11;6.2;65.2
78438;SHT31;67736;51.978;5.656;2023-03-03T08:47:45;6.2;64.3
78438;SHT31;67736;51.978;5.656;2023-03-03T08:50:15;6.2;64.1
78438;SHT31;67736;51.978;5.656;2023-03-03T08:52:45;6.2;64.0
78438;SHT31;67736;51.978;5.656;2023-03-03T08:55:16;6.2;64.2
78438;SHT31;67736;51.978;5.656;2023-03-03T08:57:45;6.2;64.3
78438;SHT31;67736;51.978;5.656;2023-03-03T09:00:23;6.2;64.3
78438;SHT31;67736;51.978;5.656;2023-03-03T09:02:54;6.2;64.6
78438;SHT31;67736;51.978;5.656;2023-03-03T09:05:24;6.2;64.5
78438;SHT31;67736;51.978;5.656;2023-03-03T09:07:54;6.2;64.6
78438;SHT31;67736;51.978;5.656;2023-03-03T09:10:26;6.3;64.8
78438;SHT31;67736;51.978;5.656;2023-03-03T09:13:00;6.4;64.9
78438;SHT31;67736;51.978;5.656;2023-03-03T09:15:32;6.4;64.5
78438;SHT31;67736;51.978;5.656;2023-03-03T09:18:16;6.5;64.6
78438;SHT31;67736;51.978;5.656;2023-03-03T09:20:48;6.6;63.8
78438;SHT31;67736;51.978;5.656;2023-03-03T09:23:27;6.7;62.2
78438;SHT31;67736;51.978;5.656;2023-03-03T09:25:58;6.7;61.9
78438;SHT31;67736;51.978;5.656;2023-03-03T09:28:32;6.8;62.5
78438;SHT31;67736;51.978;5.656;2023-03-03T09:31:05;6.8;62.6
78438;SHT31;67736;51.978;5.656;2023-03-03T09:33:43;7.0;61.7
78438;SHT31;67736;51.978;5.656;2023-03-03T09:36:22;7.1;60.7
78438;SHT31;67736;51.978;5.656;2023-03-03T09:38:53;7.2;60.5
78438;SHT31;67736;51.978;5.656;2023-03-03T09:41:45;7.4;60.0
78438;SHT31;67736;51.978;5.656;2023-03-03T09:46:00;7.6;60.5
78438;SHT31;67736;51.978;5.656;2023-03-03T09:48:41;8.0;58.0
78438;SHT31;67736;51.978;5.656;2023-03-03T09:51:25;8.2;58.1
78438;SHT31;67736;51.978;5.656;2023-03-03T09:54:06;8.5;56.5
78438;SHT31;67736;51.978;5.656;2023-03-03T09:56:43;8.7;55.4
78438;SHT31;67736;51.978;5.656;2023-03-03T09:59:29;8.8;54.8
78438;SHT31;67736;51.978;5.656;2023-03-03T10:02:18;9.0;54.4
78438;SHT31;67736;51.978;5.656;2023-03-03T10:05:12;9.1;53.8
78438;SHT31;67736;51.978;5.656;2023-03-03T10:07:54;9.2;53.6
78438;SHT31;67736;51.978;5.656;2023-03-03T10:10:32;9.3;52.9
78438;SHT31;67736;51.978;5.656;2023-03-03T10:13:17;9.3;53.4
78438;SHT31;67736;51.978;5.656;2023-03-03T10:15:55;9.4;53.2
78438;SHT31;67736;51.978;5.656;2023-03-03T10:18:38;9.5;52.7
78438;SHT31;67736;51.978;5.656;2023-03-03T10:21:17;9.6;52.8
78438;SHT31;67736;51.978;5.656;2023-03-03T10:23:58;9.6;52.1
78438;SHT31;67736;51.978;5.656;2023-03-03T10:31:19;11.5;45.3
78438;SHT31;67736;51.978;5.656;2023-03-03T10:34:01;10.4;49.1
78438;SHT31;67736;51.978;5.656;2023-03-03T10:36:45;10.2;50.0
78438;SHT31;67736;51.978;5.656;2023-03-03T10:39:31;10.1;50.1
78438;SHT31;67736;51.978;5.656;2023-03-03T10:42:11;10.1;50.2
78438;SHT31;67736;51.978;5.656;2023-03-03T10:44:53;10.1;50.2
78438;SHT31;67736;51.978;5.656;2023-03-03T10:47:33;10.1;50.9
78438;SHT31;67736;51.978;5.656;2023-03-03T10:50:14;10.1;50.7
78438;SHT31;67736;51.978;5.656;2023-03-03T10:52:49;10.1;50.4
78438;SHT31;67736;51.978;5.656;2023-03-03T10:56:02;10.1;51.2
78438;SHT31;67736;51.978;5.656;2023-03-03T10:58:50;10.1;51.1
78438;SHT31;67736;51.978;5.656;2023-03-03T11:01:28;10.1;50.7
78438;SHT31;67736;51.978;5.656;2023-03-03T11:05:30;10.1;50.7
78438;SHT31;67736;51.978;5.656;2023-03-03T11:08:08;10.2;49.7
78438;SHT31;67736;51.978;5.656;2023-03-03T11:10:50;10.2;50.0
78438;SHT31;67736;51.978;5.656;2023-03-03T11:13:30;10.2;49.8
78438;SHT31;67736;51.978;5.656;2023-03-03T11:16:19;10.2;50.0
78438;SHT31;67736;51.978;5.656;2023-03-03T11:19:00;10.2;49.4
78438;SHT31;67736;51.978;5.656;2023-03-03T11:21:37;10.2;49.4
78438;SHT31;67736;51.978;5.656;2023-03-03T11:24:19;10.2;49.8
78438;SHT31;67736;51.978;5.656;2023-03-03T11:27:04;10.2;50.3
78438;SHT31;67736;51.978;5.656;2023-03-03T11:29:47;10.3;49.9
78438;SHT31;67736;51.978;5.656;2023-03-03T11:32:30;10.3;49.4
78438;SHT31;67736;51.978;5.656;2023-03-03T11:35:17;10.3;49.2
78438;SHT31;67736;51.978;5.656;2023-03-03T11:37:59;10.4;48.8
78438;SHT31;67736;51.978;5.656;2023-03-03T11:40:38;10.4;48.1
78438;SHT31;67736;51.978;5.656;2023-03-03T11:43:15;10.4;48.4
78438;SHT31;67736;51.978;5.656;2023-03-03T11:45:49;10.5;48.5
78438;SHT31;67736;51.978;5.656;2023-03-03T11:48:32;10.5;47.8
78438;SHT31;67736;51.978;5.656;2023-03-03T11:51:06;10.5;48.2
78438;SHT31;67736;51.978;5.656;2023-03-03T11:53:49;10.5;48.0
78438;SHT31;67736;51.978;5.656;2023-03-03T11:56:29;10.5;49.1
78438;SHT31;67736;51.978;5.656;2023-03-03T11:59:23;10.6;48.2
78438;SHT31;67736;51.978;5.656;2023-03-03T12:02:00;10.6;48.5
78438;SHT31;67736;51.978;5.656;2023-03-03T12:04:36;10.6;48.4
78438;SHT31;67736;51.978;5.656;2023-03-03T12:07:20;10.6;47.7
78438;SHT31;67736;51.978;5.656;2023-03-03T12:10:04;10.6;48.1
78438;SHT31;67736;51.978;5.656;2023-03-03T12:12:40;10.6;48.1
78438;SHT31;67736;51.978;5.656;2023-03-03T12:15:20;10.6;48.1
78438;SHT31;67736;51.978;5.656;2023-03-03T12:18:26;10.6;48.2
78438;SHT31;67736;51.978;5.656;2023-03-03T12:21:13;10.6;47.6
78438;SHT31;67736;51.978;5.656;2023-03-03T12:24:03;10.7;46.8
78438;SHT31;67736;51.978;5.656;2023-03-03T12:26:45;10.7;46.4
78438;SHT31;67736;51.978;5.656;2023-03-03T12:29:26;10.7;46.7
78438;SHT31;67736;51.978;5.656;2023-03-03T12:32:06;10.7;46.4
78438;SHT31;67736;51.978;5.656;2023-03-03T12:34:47;10.7;46.1
78438;SHT31;67736;51.978;5.656;2023-03-03T12:37:26;10.7;45.4
78438;SHT31;67736;51.978;5.656;2023-03-03T12:40:02;10.7;45.2
78438;SHT31;67736;51.978;5.656;2023-03-03T12:42:45;10.7;44.2
78438;SHT31;67736;51.978;5.656;2023-03-03T12:45:34;10.8;45.2
78438;SHT31;67736;51.978;5.656;2023-03-03T12:48:08;10.8;45.0
78438;SHT31;67736;51.978;5.656;2023-03-03T12:50:52;10.8;43.9
78438;SHT31;67736;51.978;5.656;2023-03-03T12:53:41;10.8;44.2
78438;SHT31;67736;51.978;5.656;2023-03-03T12:56:17;10.9;46.2
78438;SHT31;67736;51.978;5.656;2023-03-03T12:58:59;10.9;46.9
78438;SHT31;67736;51.978;5.656;2023-03-03T13:01:47;10.9;46.2
78438;SHT31;67736;51.978;5.656;2023-03-03T13:04:30;11.0;45.8
78438;SHT31;67736;51.978;5.656;2023-03-03T13:07:06;11.0;45.2
78438;SHT31;67736;51.978;5.656;2023-03-03T13:09:54;11.0;45.3
78438;SHT31;67736;51.978;5.656;2023-03-03T13:12:33;11.0;44.2
78438;SHT31;67736;51.978;5.656;2023-03-03T13:15:14;11.0;44.3
78438;SHT31;67736;51.978;5.656;2023-03-03T13:17:51;11.0;44.0
78438;SHT31;67736;51.978;5.656;2023-03-03T13:20:36;11.0;43.9
78438;SHT31;67736;51.978;5.656;2023-03-03T13:23:21;11.1;42.8
78438;SHT31;67736;51.978;5.656;2023-03-03T13:25:52;11.1;44.0
78438;SHT31;67736;51.978;5.656;2023-03-03T13:28:33;11.1;44.2
78438;SHT31;67736;51.978;5.656;2023-03-03T13:31:10;11.2;45.2
78438;SHT31;67736;51.978;5.656;2023-03-03T13:33:43;11.2;45.1
78438;SHT31;67736;51.978;5.656;2023-03-03T13:36:17;11.2;45.6
78438;SHT31;67736;51.978;5.656;2023-03-03T13:38:50;11.3;44.9
78438;SHT31;67736;51.978;5.656;2023-03-03T13:41:26;11.3;44.9
78438;SHT31;67736;51.978;5.656;2023-03-03T13:44:03;11.3;44.7
78438;SHT31;67736;51.978;5.656;2023-03-03T13:46:40;11.4;44.7
78438;SHT31;67736;51.978;5.656;2023-03-03T13:49:27;11.4;43.7
78438;SHT31;67736;51.978;5.656;2023-03-03T13:52:05;11.4;44.0
78438;SHT31;67736;51.978;5.656;2023-03-03T13:54:55;11.4;44.0
78438;SHT31;67736;51.978;5.656;2023-03-03T13:57:47;11.4;43.9
78438;SHT31;67736;51.978;5.656;2023-03-03T14:00:35;11.4;44.1
78438;SHT31;67736;51.978;5.656;2023-03-03T14:03:48;11.4;44.7
78438;SHT31;67736;51.978;5.656;2023-03-03T14:06:22;11.5;43.9
78438;SHT31;67736;51.978;5.656;2023-03-03T14:09:19;11.5;43.7
78438;SHT31;67736;51.978;5.656;2023-03-03T14:11:56;11.6;43.6
78438;SHT31;67736;51.978;5.656;2023-03-03T14:14:43;11.6;43.4
78438;SHT31;67736;51.978;5.656;2023-03-03T14:17:25;11.6;43.5
78438;SHT31;67736;51.978;5.656;2023-03-03T14:20:14;11.6;43.6
78438;SHT31;67736;51.978;5.656;2023-03-03T14:22:51;11.6;43.7
78438;SHT31;67736;51.978;5.656;2023-03-03T14:25:24;11.6;43.5
78438;SHT31;67736;51.978;5.656;2023-03-03T14:28:11;11.6;44.3
78438;SHT31;67736;51.978;5.656;2023-03-03T14:30:42;11.6;44.7
78438;SHT31;67736;51.978;5.656;2023-03-03T14:33:25;11.6;44.9
78438;SHT31;67736;51.978;5.656;2023-03-03T14:36:31;11.6;44.8
78438;SHT31;67736;51.978;5.656;2023-03-03T14:39:01;11.5;44.5
78438;SHT31;67736;51.978;5.656;2023-03-03T14:41:39;11.5;44.1
78438;SHT31;67736;51.978;5.656;2023-03-03T14:44:31;11.5;44.7
78438;SHT31;67736;51.978;5.656;2023-03-03T14:47:19;11.5;44.9
78438;SHT31;67736;51.978;5.656;2023-03-03T14:49:51;11.5;45.3
78438;SHT31;67736;51.978;5.656;2023-03-03T14:52:24;11.4;45.6
78438;SHT31;67736;51.978;5.656;2023-03-03T14:54:55;11.4;46.0
78438;SHT31;67736;51.978;5.656;2023-03-03T14:57:40;11.4;45.8
78438;SHT31;67736;51.978;5.656;2023-03-03T15:00:29;11.4;46.0
78438;SHT31;67736;51.978;5.656;2023-03-03T15:03:21;11.4;45.8
78438;SHT31;67736;51.978;5.656;2023-03-03T15:05:53;11.4;45.1
78438;SHT31;67736;51.978;5.656;2023-03-03T15:08:30;11.3;45.2
78438;SHT31;67736;51.978;5.656;2023-03-03T15:11:13;11.3;45.3
78438;SHT31;67736;51.978;5.656;2023-03-03T15:13:46;11.3;44.4
78438;SHT31;67736;51.978;5.656;2023-03-03T15:16:20;11.3;44.6
78438;SHT31;67736;51.978;5.656;2023-03-03T15:23:16;11.2;44.7
78438;SHT31;67736;51.978;5.656;2023-03-03T15:25:56;11.1;44.2
78438;SHT31;67736;51.978;5.656;2023-03-03T15:28:33;11.1;44.5
78438;SHT31;67736;51.978;5.656;2023-03-03T15:31:14;11.1;45.4
78438;SHT31;67736;51.978;5.656;2023-03-03T15:33:58;11.0;45.2
78438;SHT31;67736;51.978;5.656;2023-03-03T15:36:36;11.0;44.9
78438;SHT31;67736;51.978;5.656;2023-03-03T15:39:20;10.9;45.3
78438;SHT31;67736;51.978;5.656;2023-03-03T15:41:59;10.9;45.1
78438;SHT31;67736;51.978;5.656;2023-03-03T15:44:46;10.9;44.8
78438;SHT31;67736;51.978;5.656;2023-03-03T15:47:37;10.8;44.9
78438;SHT31;67736;51.978;5.656;2023-03-03T15:50:39;10.8;44.9
78438;SHT31;67736;51.978;5.656;2023-03-03T15:53:28;10.7;44.9
78438;SHT31;67736;51.978;5.656;2023-03-03T15:56:15;10.6;45.0
78438;SHT31;67736;51.978;5.656;2023-03-03T15:59:22;10.6;45.2
78438;SHT31;67736;51.978;5.656;2023-03-03T16:02:02;10.5;45.4
78438;SHT31;67736;51.978;5.656;2023-03-03T16:04:40;10.5;45.6
78438;SHT31;67736;51.978;5.656;2023-03-03T16:07:25;10.5;46.0
78438;SHT31;67736;51.978;5.656;2023-03-03T16:10:06;10.5;46.2
78438;SHT31;67736;51.978;5.656;2023-03-03T16:12:49;10.4;46.7
78438;SHT31;67736;51.978;5.656;2023-03-03T16:15:40;10.4;47.2
78438;SHT31;67736;51.978;5.656;2023-03-03T16:18:21;10.4;47.4
78438;SHT31;67736;51.978;5.656;2023-03-03T16:21:05;10.4;47.7
78438;SHT31;67736;51.978;5.656;2023-03-03T16:23:45;10.4;48.2
78438;SHT31;67736;51.978;5.656;2023-03-03T16:26:30;10.4;48.2
78438;SHT31;67736;51.978;5.656;2023-03-03T16:29:23;10.4;47.8
78438;SHT31;67736;51.978;5.656;2023-03-03T16:31:59;10.3;47.9
78438;SHT31;67736;51.978;5.656;2023-03-03T16:34:38;10.3;47.8
78438;SHT31;67736;51.978;5.656;2023-03-03T16:37:18;10.3;47.7
78438;SHT31;67736;51.978;5.656;2023-03-03T16:39:55;10.3;48.1
78438;SHT31;67736;51.978;5.656;2023-03-03T16:42:29;10.2;48.2
78438;SHT31;67736;51.978;5.656;2023-03-03T16:45:17;10.2;48.4
78438;SHT31;67736;51.978;5.656;2023-03-03T16:48:09;10.1;48.4
78438;SHT31;67736;51.978;5.656;2023-03-03T16:50:47;10.0;48.1
78438;SHT31;67736;51.978;5.656;2023-03-03T16:53:30;10.0;48.1
78438;SHT31;67736;51.978;5.656;2023-03-03T16:56:09;10.0;48.1
78438;SHT31;67736;51.978;5.656;2023-03-03T16:58:58;10.0;48.3
78438;SHT31;67736;51.978;5.656;2023-03-03T17:01:40;10.0;48.0
78438;SHT31;67736;51.978;5.656;2023-03-03T17:04:16;9.9;47.9
78438;SHT31;67736;51.978;5.656;2023-03-03T17:06:54;9.9;48.2
78438;SHT31;67736;51.978;5.656;2023-03-03T17:09:43;9.9;48.0
78438;SHT31;67736;51.978;5.656;2023-03-03T17:12:36;9.9;47.6
78438;SHT31;67736;51.978;5.656;2023-03-03T17:15:21;9.9;47.4
78438;SHT31;67736;51.978;5.656;2023-03-03T17:18:06;9.8;47.5
78438;SHT31;67736;51.978;5.656;2023-03-03T17:20:47;9.8;47.5
78438;SHT31;67736;51.978;5.656;2023-03-03T17:24:06;9.7;47.1
78438;SHT31;67736;51.978;5.656;2023-03-03T17:26:58;9.6;47.2